sensor_id;sensor_type;location;lat;lon;timestamp;P1;durP1;ratioP1;P2;durP2;ratioP2
15449;SDS011;7826;49.784;9.934;2023-09-18T00:00:17;6.80;;;6.20;;
15449;SDS011;7826;49.784;9.934;2023-09-18T00:02:43;6.40;;;5.80;;
15449;SDS011;7826;49.784;9.934;2023-09-18T00:05:10;7.07;;;6.37;;
15449;SDS011;7826;49.784;9.934;2023-09-18T00:07:37;6.50;;;6.00;;
15449;SDS011;7826;49.784;9.934;2023-09-18T00:10:03;6.63;;;5.90;;
15449;SDS011;7826;49.784;9.934;2023-09-18T00:12:30;6.53;;;5.93;;
15449;SDS011;7826;49.784;9.934;2023-09-18T00:14:56;5.97;;;5.47;;
15449;SDS011;7826;49.784;9.934;2023-09-18T00:17:23;6.17;;;5.67;;
15449;SDS011;7826;49.784;9.934;2023-09-18T00:19:50;5.83;;;5.33;;
15449;SDS011;7826;49.784;9.934;2023-09-18T00:22:17;6.07;;;5.53;;
15449;SDS011;7826;49.784;9.934;2023-09-18T00:24:44;6.60;;;6.00;;
15449;SDS011;7826;49.784;9.934;2023-09-18T00:27:10;6.37;;;5.80;;
15449;SDS011;7826;49.784;9.934;2023-09-18T00:29:40;7.23;;;6.23;;
15449;SDS011;7826;49.784;9.934;2023-09-18T00:32:06;6.90;;;6.27;;
15449;SDS011;7826;49.784;9.934;2023-09-18T00:34:33;6.40;;;5.80;;
15449;SDS011;7826;49.784;9.934;2023-09-18T00:37:00;6.77;;;6.13;;
15449;SDS011;7826;49.784;9.934;2023-09-18T00:39:26;6.83;;;6.23;;
15449;SDS011;7826;49.784;9.934;2023-09-18T00:41:53;6.47;;;5.90;;
15449;SDS011;7826;49.784;9.934;2023-09-18T00:44:20;7.90;;;6.27;;
15449;SDS011;7826;49.784;9.934;2023-09-18T00:46:48;6.47;;;5.87;;
15449;SDS011;7826;49.784;9.934;2023-09-18T00:49:16;6.43;;;5.83;;
15449;SDS011;7826;49.784;9.934;2023-09-18T00:51:44;6.03;;;5.53;;
15449;SDS011;7826;49.784;9.934;2023-09-18T00:54:10;6.43;;;5.83;;
15449;SDS011;7826;49.784;9.934;2023-09-18T00:56:37;6.30;;;5.70;;
15449;SDS011;7826;49.784;9.934;2023-09-18T00:59:04;6.40;;;5.90;;
15449;SDS011;7826;49.784;9.934;2023-09-18T01:01:30;6.43;;;5.83;;
15449;SDS011;7826;49.784;9.934;2023-09-18T01:03:58;5.60;;;5.10;;
15449;SDS011;7826;49.784;9.934;2023-09-18T01:06:25;6.83;;;5.50;;
15449;SDS011;7826;49.784;9.934;2023-09-18T01:08:56;6.17;;;5.57;;
15449;SDS011;7826;49.784;9.934;2023-09-18T01:16:32;6.43;;;5.60;;
15449;SDS011;7826;49.784;9.934;2023-09-18T01:19:11;6.10;;;5.60;;
15449;SDS011;7826;49.784;9.934;2023-09-18T01:21:37;6.17;;;5.57;;
15449;SDS011;7826;49.784;9.934;2023-09-18T01:24:04;6.27;;;5.73;;
15449;SDS011;7826;49.784;9.934;2023-09-18T01:26:30;6.97;;;5.70;;
15449;SDS011;7826;49.784;9.934;2023-09-18T01:28:57;6.20;;;5.70;;
15449;SDS011;7826;49.784;9.934;2023-09-18T01:31:23;5.53;;;5.03;;
15449;SDS011;7826;49.784;9.934;2023-09-18T01:33:52;6.20;;;5.60;;
15449;SDS011;7826;49.784;9.934;2023-09-18T01:36:19;6.97;;;5.93;;
15449;SDS011;7826;49.784;9.934;2023-09-18T01:38:46;6.27;;;5.67;;
15449;SDS011;7826;49.784;9.934;2023-09-18T01:41:15;5.83;;;5.27;;
15449;SDS011;7826;49.784;9.934;2023-09-18T01:43:42;6.00;;;5.50;;
15449;SDS011;7826;49.784;9.934;2023-09-18T01:46:08;6.30;;;5.77;;
15449;SDS011;7826;49.784;9.934;2023-09-18T01:48:35;5.87;;;5.37;;
15449;SDS011;7826;49.784;9.934;2023-09-18T01:51:02;6.10;;;5.60;;
15449;SDS011;7826;49.784;9.934;2023-09-18T01:53:28;6.60;;;6.00;;
15449;SDS011;7826;49.784;9.934;2023-09-18T01:55:55;6.87;;;6.20;;
15449;SDS011;7826;49.784;9.934;2023-09-18T01:58:22;6.63;;;5.83;;
15449;SDS011;7826;49.784;9.934;2023-09-18T02:00:48;6.20;;;5.70;;
15449;SDS011;7826;49.784;9.934;2023-09-18T02:03:15;6.53;;;5.93;;
15449;SDS011;7826;49.784;9.934;2023-09-18T02:05:44;6.53;;;5.80;;
15449;SDS011;7826;49.784;9.934;2023-09-18T02:08:10;6.30;;;5.77;;
15449;SDS011;7826;49.784;9.934;2023-09-18T02:10:37;6.30;;;5.70;;
15449;SDS011;7826;49.784;9.934;2023-09-18T02:13:03;6.43;;;5.87;;
15449;SDS011;7826;49.784;9.934;2023-09-18T02:15:30;6.70;;;6.00;;
15449;SDS011;7826;49.784;9.934;2023-09-18T02:17:57;9.23;;;6.33;;
15449;SDS011;7826;49.784;9.934;2023-09-18T02:20:23;7.23;;;6.47;;
15449;SDS011;7826;49.784;9.934;2023-09-18T02:22:50;9.07;;;6.40;;
15449;SDS011;7826;49.784;9.934;2023-09-18T02:25:17;7.23;;;6.57;;
15449;SDS011;7826;49.784;9.934;2023-09-18T02:27:43;7.37;;;6.67;;
15449;SDS011;7826;49.784;9.934;2023-09-18T02:30:10;7.23;;;6.50;;
15449;SDS011;7826;49.784;9.934;2023-09-18T02:32:37;7.17;;;6.57;;
15449;SDS011;7826;49.784;9.934;2023-09-18T02:35:03;7.37;;;6.67;;
15449;SDS011;7826;49.784;9.934;2023-09-18T02:37:32;7.37;;;6.67;;
15449;SDS011;7826;49.784;9.934;2023-09-18T02:39:59;7.57;;;6.83;;
15449;SDS011;7826;49.784;9.934;2023-09-18T02:42:26;6.83;;;6.23;;
15449;SDS011;7826;49.784;9.934;2023-09-18T02:44:52;7.37;;;6.37;;
15449;SDS011;7826;49.784;9.934;2023-09-18T02:47:19;8.13;;;6.27;;
15449;SDS011;7826;49.784;9.934;2023-09-18T02:49:45;6.97;;;6.37;;
15449;SDS011;7826;49.784;9.934;2023-09-18T02:52:12;7.37;;;6.77;;
15449;SDS011;7826;49.784;9.934;2023-09-18T02:54:39;7.93;;;6.93;;
15449;SDS011;7826;49.784;9.934;2023-09-18T02:57:05;8.43;;;6.83;;
15449;SDS011;7826;49.784;9.934;2023-09-18T02:59:32;8.20;;;6.50;;
15449;SDS011;7826;49.784;9.934;2023-09-18T03:01:59;7.57;;;6.87;;
15449;SDS011;7826;49.784;9.934;2023-09-18T03:04:26;6.87;;;6.27;;
15449;SDS011;7826;49.784;9.934;2023-09-18T03:06:52;7.57;;;6.70;;
15449;SDS011;7826;49.784;9.934;2023-09-18T03:09:19;7.30;;;6.70;;
15449;SDS011;7826;49.784;9.934;2023-09-18T03:11:45;6.93;;;6.23;;
15449;SDS011;7826;49.784;9.934;2023-09-18T03:14:12;6.77;;;6.17;;
15449;SDS011;7826;49.784;9.934;2023-09-18T03:16:39;7.47;;;6.77;;
15449;SDS011;7826;49.784;9.934;2023-09-18T03:19:05;7.27;;;6.60;;
15449;SDS011;7826;49.784;9.934;2023-09-18T03:21:32;7.37;;;6.67;;
15449;SDS011;7826;49.784;9.934;2023-09-18T03:24:01;7.63;;;6.87;;
15449;SDS011;7826;49.784;9.934;2023-09-18T03:26:28;7.23;;;6.50;;
15449;SDS011;7826;49.784;9.934;2023-09-18T03:28:55;7.50;;;6.80;;
15449;SDS011;7826;49.784;9.934;2023-09-18T03:31:21;7.70;;;7.00;;
15449;SDS011;7826;49.784;9.934;2023-09-18T03:33:48;7.20;;;6.43;;
15449;SDS011;7826;49.784;9.934;2023-09-18T03:36:15;8.33;;;7.27;;
15449;SDS011;7826;49.784;9.934;2023-09-18T03:38:42;7.27;;;6.50;;
15449;SDS011;7826;49.784;9.934;2023-09-18T03:41:08;7.47;;;6.77;;
15449;SDS011;7826;49.784;9.934;2023-09-18T03:43:35;7.27;;;6.60;;
15449;SDS011;7826;49.784;9.934;2023-09-18T03:46:05;8.10;;;7.40;;
15449;SDS011;7826;49.784;9.934;2023-09-18T03:48:33;7.73;;;6.93;;
15449;SDS011;7826;49.784;9.934;2023-09-18T03:51:03;8.07;;;7.27;;
15449;SDS011;7826;49.784;9.934;2023-09-18T03:53:34;8.33;;;7.53;;
15449;SDS011;7826;49.784;9.934;2023-09-18T03:56:01;7.93;;;7.13;;
15449;SDS011;7826;49.784;9.934;2023-09-18T03:58:28;9.83;;;7.43;;
15449;SDS011;7826;49.784;9.934;2023-09-18T04:00:55;8.53;;;7.63;;
15449;SDS011;7826;49.784;9.934;2023-09-18T04:03:22;7.70;;;6.90;;
15449;SDS011;7826;49.784;9.934;2023-09-18T04:05:48;7.93;;;7.23;;
15449;SDS011;7826;49.784;9.934;2023-09-18T04:08:14;8.10;;;7.30;;
15449;SDS011;7826;49.784;9.934;2023-09-18T04:10:41;7.60;;;6.90;;
15449;SDS011;7826;49.784;9.934;2023-09-18T04:13:08;8.47;;;7.57;;
15449;SDS011;7826;49.784;9.934;2023-09-18T04:15:34;8.23;;;7.43;;
15449;SDS011;7826;49.784;9.934;2023-09-18T04:18:06;10.00;;;7.37;;
15449;SDS011;7826;49.784;9.934;2023-09-18T04:20:33;8.23;;;7.53;;
15449;SDS011;7826;49.784;9.934;2023-09-18T04:23:21;8.97;;;8.13;;
15449;SDS011;7826;49.784;9.934;2023-09-18T04:25:49;8.60;;;7.80;;
15449;SDS011;7826;49.784;9.934;2023-09-18T04:28:17;8.37;;;7.57;;
15449;SDS011;7826;49.784;9.934;2023-09-18T04:30:45;8.97;;;8.07;;
15449;SDS011;7826;49.784;9.934;2023-09-18T04:33:15;8.40;;;7.60;;
15449;SDS011;7826;49.784;9.934;2023-09-18T04:35:43;9.43;;;7.97;;
15449;SDS011;7826;49.784;9.934;2023-09-18T04:38:10;10.13;;;8.13;;
15449;SDS011;7826;49.784;9.934;2023-09-18T04:40:37;9.17;;;8.30;;
15449;SDS011;7826;49.784;9.934;2023-09-18T04:43:04;9.10;;;8.23;;
15449;SDS011;7826;49.784;9.934;2023-09-18T04:45:31;9.03;;;8.23;;
15449;SDS011;7826;49.784;9.934;2023-09-18T04:47:58;8.87;;;8.03;;
15449;SDS011;7826;49.784;9.934;2023-09-18T04:50:24;10.10;;;8.77;;
15449;SDS011;7826;49.784;9.934;2023-09-18T04:52:52;10.43;;;8.00;;
15449;SDS011;7826;49.784;9.934;2023-09-18T04:55:20;9.63;;;8.70;;
15449;SDS011;7826;49.784;9.934;2023-09-18T04:57:47;9.33;;;8.43;;
15449;SDS011;7826;49.784;9.934;2023-09-18T05:00:14;9.40;;;8.53;;
15449;SDS011;7826;49.784;9.934;2023-09-18T05:02:42;10.10;;;9.10;;
15449;SDS011;7826;49.784;9.934;2023-09-18T05:05:09;9.33;;;8.53;;
15449;SDS011;7826;49.784;9.934;2023-09-18T05:07:35;10.27;;;9.37;;
15449;SDS011;7826;49.784;9.934;2023-09-18T05:10:03;10.13;;;9.13;;
15449;SDS011;7826;49.784;9.934;2023-09-18T05:12:30;9.77;;;8.80;;
15449;SDS011;7826;49.784;9.934;2023-09-18T05:14:57;10.37;;;9.37;;
15449;SDS011;7826;49.784;9.934;2023-09-18T05:17:38;9.77;;;8.83;;
15449;SDS011;7826;49.784;9.934;2023-09-18T05:20:08;9.83;;;8.93;;
15449;SDS011;7826;49.784;9.934;2023-09-18T05:22:37;10.00;;;9.10;;
15449;SDS011;7826;49.784;9.934;2023-09-18T05:25:04;9.50;;;8.60;;
15449;SDS011;7826;49.784;9.934;2023-09-18T05:27:32;9.80;;;8.77;;
15449;SDS011;7826;49.784;9.934;2023-09-18T05:29:59;10.27;;;9.27;;
15449;SDS011;7826;49.784;9.934;2023-09-18T05:32:25;11.23;;;9.40;;
15449;SDS011;7826;49.784;9.934;2023-09-18T05:34:52;9.10;;;8.20;;
15449;SDS011;7826;49.784;9.934;2023-09-18T05:37:18;9.97;;;8.97;;
15449;SDS011;7826;49.784;9.934;2023-09-18T05:39:45;9.70;;;8.70;;
15449;SDS011;7826;49.784;9.934;2023-09-18T05:42:11;10.10;;;9.20;;
15449;SDS011;7826;49.784;9.934;2023-09-18T05:44:38;10.23;;;8.70;;
15449;SDS011;7826;49.784;9.934;2023-09-18T05:47:05;10.00;;;9.00;;
15449;SDS011;7826;49.784;9.934;2023-09-18T05:49:31;9.77;;;8.57;;
15449;SDS011;7826;49.784;9.934;2023-09-18T05:51:58;9.83;;;8.10;;
15449;SDS011;7826;49.784;9.934;2023-09-18T05:54:24;9.90;;;8.37;;
15449;SDS011;7826;49.784;9.934;2023-09-18T05:56:51;10.90;;;9.07;;
15449;SDS011;7826;49.784;9.934;2023-09-18T05:59:17;10.87;;;8.83;;
15449;SDS011;7826;49.784;9.934;2023-09-18T06:01:45;10.47;;;9.00;;
15449;SDS011;7826;49.784;9.934;2023-09-18T06:04:11;10.60;;;9.10;;
15449;SDS011;7826;49.784;9.934;2023-09-18T06:06:38;10.90;;;9.40;;
15449;SDS011;7826;49.784;9.934;2023-09-18T06:09:05;10.30;;;9.30;;
15449;SDS011;7826;49.784;9.934;2023-09-18T06:11:31;10.10;;;9.10;;
15449;SDS011;7826;49.784;9.934;2023-09-18T06:13:58;9.63;;;8.73;;
15449;SDS011;7826;49.784;9.934;2023-09-18T06:16:24;9.00;;;8.10;;
15449;SDS011;7826;49.784;9.934;2023-09-18T06:18:51;9.90;;;9.00;;
15449;SDS011;7826;49.784;9.934;2023-09-18T06:21:18;10.07;;;8.67;;
15449;SDS011;7826;49.784;9.934;2023-09-18T06:23:44;10.30;;;9.30;;
15449;SDS011;7826;49.784;9.934;2023-09-18T06:26:11;14.80;;;9.20;;
15449;SDS011;7826;49.784;9.934;2023-09-18T06:28:37;9.23;;;8.33;;
15449;SDS011;7826;49.784;9.934;2023-09-18T06:31:04;9.70;;;8.70;;
15449;SDS011;7826;49.784;9.934;2023-09-18T06:33:31;12.10;;;8.90;;
15449;SDS011;7826;49.784;9.934;2023-09-18T06:35:57;10.83;;;8.57;;
15449;SDS011;7826;49.784;9.934;2023-09-18T06:38:25;8.97;;;8.00;;
15449;SDS011;7826;49.784;9.934;2023-09-18T06:40:51;8.43;;;7.70;;
15449;SDS011;7826;49.784;9.934;2023-09-18T06:43:18;9.10;;;8.30;;
15449;SDS011;7826;49.784;9.934;2023-09-18T06:45:45;9.70;;;8.70;;
15449;SDS011;7826;49.784;9.934;2023-09-18T06:48:11;10.27;;;8.17;;
15449;SDS011;7826;49.784;9.934;2023-09-18T06:50:39;9.07;;;8.20;;
15449;SDS011;7826;49.784;9.934;2023-09-18T06:53:06;8.53;;;7.73;;
15449;SDS011;7826;49.784;9.934;2023-09-18T06:55:33;9.33;;;8.43;;
15449;SDS011;7826;49.784;9.934;2023-09-18T06:57:59;8.93;;;8.13;;
15449;SDS011;7826;49.784;9.934;2023-09-18T07:00:26;8.73;;;7.93;;
15449;SDS011;7826;49.784;9.934;2023-09-18T07:02:52;9.30;;;8.17;;
15449;SDS011;7826;49.784;9.934;2023-09-18T07:05:19;8.30;;;7.50;;
15449;SDS011;7826;49.784;9.934;2023-09-18T07:07:45;9.03;;;8.13;;
15449;SDS011;7826;49.784;9.934;2023-09-18T07:10:12;8.33;;;7.53;;
15449;SDS011;7826;49.784;9.934;2023-09-18T07:12:38;8.80;;;7.90;;
15449;SDS011;7826;49.784;9.934;2023-09-18T07:15:05;9.77;;;8.47;;
15449;SDS011;7826;49.784;9.934;2023-09-18T07:17:32;8.70;;;7.80;;
15449;SDS011;7826;49.784;9.934;2023-09-18T07:20:01;8.77;;;7.93;;
15449;SDS011;7826;49.784;9.934;2023-09-18T07:22:35;8.97;;;8.10;;
15449;SDS011;7826;49.784;9.934;2023-09-18T07:25:02;8.57;;;7.43;;
15449;SDS011;7826;49.784;9.934;2023-09-18T07:27:29;8.47;;;7.33;;
15449;SDS011;7826;49.784;9.934;2023-09-18T07:29:55;8.00;;;7.20;;
15449;SDS011;7826;49.784;9.934;2023-09-18T07:32:23;8.20;;;7.50;;
15449;SDS011;7826;49.784;9.934;2023-09-18T07:34:50;9.17;;;7.20;;
15449;SDS011;7826;49.784;9.934;2023-09-18T07:37:17;7.27;;;6.67;;
15449;SDS011;7826;49.784;9.934;2023-09-18T07:39:46;7.77;;;7.07;;
15449;SDS011;7826;49.784;9.934;2023-09-18T07:42:13;6.83;;;6.20;;
15449;SDS011;7826;49.784;9.934;2023-09-18T07:44:40;7.40;;;6.70;;
15449;SDS011;7826;49.784;9.934;2023-09-18T07:47:07;6.60;;;5.90;;
15449;SDS011;7826;49.784;9.934;2023-09-18T07:49:33;7.17;;;6.67;;
15449;SDS011;7826;49.784;9.934;2023-09-18T07:51:59;7.13;;;6.43;;
15449;SDS011;7826;49.784;9.934;2023-09-18T07:54:26;7.80;;;7.00;;
15449;SDS011;7826;49.784;9.934;2023-09-18T07:56:53;6.70;;;6.20;;
15449;SDS011;7826;49.784;9.934;2023-09-18T07:59:20;7.10;;;6.40;;
15449;SDS011;7826;49.784;9.934;2023-09-18T08:01:47;7.10;;;6.43;;
15449;SDS011;7826;49.784;9.934;2023-09-18T08:04:14;7.13;;;6.43;;
15449;SDS011;7826;49.784;9.934;2023-09-18T08:06:40;6.83;;;6.20;;
15449;SDS011;7826;49.784;9.934;2023-09-18T08:09:07;7.00;;;6.40;;
15449;SDS011;7826;49.784;9.934;2023-09-18T08:11:39;6.80;;;6.20;;
15449;SDS011;7826;49.784;9.934;2023-09-18T08:14:08;6.93;;;6.17;;
15449;SDS011;7826;49.784;9.934;2023-09-18T08:16:37;7.50;;;6.37;;
15449;SDS011;7826;49.784;9.934;2023-09-18T08:19:04;6.20;;;5.70;;
15449;SDS011;7826;49.784;9.934;2023-09-18T08:21:30;6.43;;;5.90;;
15449;SDS011;7826;49.784;9.934;2023-09-18T08:23:57;7.00;;;6.40;;
15449;SDS011;7826;49.784;9.934;2023-09-18T08:26:25;6.60;;;6.10;;
15449;SDS011;7826;49.784;9.934;2023-09-18T08:28:53;6.37;;;5.87;;
15449;SDS011;7826;49.784;9.934;2023-09-18T08:31:20;7.30;;;6.70;;
15449;SDS011;7826;49.784;9.934;2023-09-18T08:33:46;6.77;;;6.27;;
15449;SDS011;7826;49.784;9.934;2023-09-18T08:36:13;7.13;;;6.53;;
15449;SDS011;7826;49.784;9.934;2023-09-18T08:38:41;7.10;;;6.37;;
15449;SDS011;7826;49.784;9.934;2023-09-18T08:41:10;7.57;;;6.50;;
15449;SDS011;7826;49.784;9.934;2023-09-18T08:43:39;7.07;;;6.37;;
15449;SDS011;7826;49.784;9.934;2023-09-18T08:46:08;8.17;;;6.40;;
15449;SDS011;7826;49.784;9.934;2023-09-18T08:48:35;6.33;;;5.83;;
15449;SDS011;7826;49.784;9.934;2023-09-18T08:51:04;6.77;;;6.27;;
15449;SDS011;7826;49.784;9.934;2023-09-18T08:53:32;7.27;;;6.67;;
15449;SDS011;7826;49.784;9.934;2023-09-18T08:56:00;7.13;;;6.53;;
15449;SDS011;7826;49.784;9.934;2023-09-18T08:58:31;7.93;;;6.50;;
15449;SDS011;7826;49.784;9.934;2023-09-18T09:01:02;8.07;;;6.90;;
15449;SDS011;7826;49.784;9.934;2023-09-18T09:03:36;6.53;;;5.93;;
15449;SDS011;7826;49.784;9.934;2023-09-18T09:06:04;6.47;;;5.87;;
15449;SDS011;7826;49.784;9.934;2023-09-18T09:08:32;6.90;;;6.40;;
15449;SDS011;7826;49.784;9.934;2023-09-18T09:11:02;6.70;;;6.10;;
15449;SDS011;7826;49.784;9.934;2023-09-18T09:13:41;6.27;;;5.67;;
15449;SDS011;7826;49.784;9.934;2023-09-18T09:16:20;6.73;;;6.10;;
15449;SDS011;7826;49.784;9.934;2023-09-18T09:22:20;6.67;;;5.70;;
15449;SDS011;7826;49.784;9.934;2023-09-18T09:24:48;6.30;;;5.80;;
15449;SDS011;7826;49.784;9.934;2023-09-18T09:27:15;6.93;;;6.20;;
15449;SDS011;7826;49.784;9.934;2023-09-18T09:30:07;7.23;;;5.73;;
15449;SDS011;7826;49.784;9.934;2023-09-18T09:32:39;6.80;;;5.90;;
15449;SDS011;7826;49.784;9.934;2023-09-18T09:35:13;6.40;;;5.90;;
15449;SDS011;7826;49.784;9.934;2023-09-18T09:37:48;7.13;;;6.03;;
15449;SDS011;7826;49.784;9.934;2023-09-18T09:40:24;7.47;;;5.40;;
15449;SDS011;7826;49.784;9.934;2023-09-18T09:42:55;6.20;;;5.70;;
15449;SDS011;7826;49.784;9.934;2023-09-18T09:49:01;5.97;;;5.37;;
15449;SDS011;7826;49.784;9.934;2023-09-18T09:51:35;6.63;;;5.97;;
15449;SDS011;7826;49.784;9.934;2023-09-18T09:54:18;5.80;;;5.30;;
15449;SDS011;7826;49.784;9.934;2023-09-18T09:57:12;5.90;;;5.40;;
15449;SDS011;7826;49.784;9.934;2023-09-18T09:59:51;6.43;;;5.73;;
15449;SDS011;7826;49.784;9.934;2023-09-18T10:06:11;5.80;;;5.30;;
15449;SDS011;7826;49.784;9.934;2023-09-18T10:08:39;6.50;;;5.67;;
15449;SDS011;7826;49.784;9.934;2023-09-18T10:11:07;6.13;;;5.20;;
15449;SDS011;7826;49.784;9.934;2023-09-18T10:13:46;6.03;;;5.43;;
15449;SDS011;7826;49.784;9.934;2023-09-18T10:16:19;6.20;;;5.20;;
15449;SDS011;7826;49.784;9.934;2023-09-18T10:19:00;5.53;;;5.10;;
15449;SDS011;7826;49.784;9.934;2023-09-18T10:24:28;5.63;;;4.87;;
15449;SDS011;7826;49.784;9.934;2023-09-18T10:26:58;5.57;;;4.77;;
15449;SDS011;7826;49.784;9.934;2023-09-18T10:29:30;5.37;;;4.80;;
15449;SDS011;7826;49.784;9.934;2023-09-18T10:32:03;4.83;;;4.40;;
15449;SDS011;7826;49.784;9.934;2023-09-18T10:34:30;4.87;;;4.47;;
15449;SDS011;7826;49.784;9.934;2023-09-18T10:36:59;4.87;;;4.57;;
15449;SDS011;7826;49.784;9.934;2023-09-18T10:39:31;4.90;;;4.50;;
15449;SDS011;7826;49.784;9.934;2023-09-18T10:42:01;4.87;;;4.43;;
15449;SDS011;7826;49.784;9.934;2023-09-18T10:44:30;5.63;;;4.67;;
15449;SDS011;7826;49.784;9.934;2023-09-18T10:47:00;4.50;;;4.20;;
15449;SDS011;7826;49.784;9.934;2023-09-18T10:49:31;4.73;;;4.33;;
15449;SDS011;7826;49.784;9.934;2023-09-18T10:52:01;4.77;;;4.23;;
15449;SDS011;7826;49.784;9.934;2023-09-18T10:54:29;5.23;;;4.80;;
15449;SDS011;7826;49.784;9.934;2023-09-18T10:56:57;4.83;;;4.43;;
15449;SDS011;7826;49.784;9.934;2023-09-18T10:59:24;4.90;;;4.30;;
15449;SDS011;7826;49.784;9.934;2023-09-18T11:01:53;4.93;;;4.47;;
15449;SDS011;7826;49.784;9.934;2023-09-18T11:04:20;5.00;;;4.50;;
15449;SDS011;7826;49.784;9.934;2023-09-18T11:09:29;4.73;;;4.33;;
15449;SDS011;7826;49.784;9.934;2023-09-18T11:17:31;4.73;;;4.33;;
15449;SDS011;7826;49.784;9.934;2023-09-18T11:20:06;5.60;;;4.70;;
15449;SDS011;7826;49.784;9.934;2023-09-18T11:22:57;5.30;;;4.80;;
15449;SDS011;7826;49.784;9.934;2023-09-18T11:25:30;5.37;;;4.40;;
15449;SDS011;7826;49.784;9.934;2023-09-18T11:28:01;4.90;;;4.60;;
15449;SDS011;7826;49.784;9.934;2023-09-18T11:30:28;4.57;;;4.17;;
15449;SDS011;7826;49.784;9.934;2023-09-18T11:32:55;5.07;;;4.67;;
15449;SDS011;7826;49.784;9.934;2023-09-18T11:35:26;5.07;;;4.43;;
15449;SDS011;7826;49.784;9.934;2023-09-18T11:38:05;5.03;;;4.53;;
15449;SDS011;7826;49.784;9.934;2023-09-18T11:40:35;9.03;;;4.87;;
15449;SDS011;7826;49.784;9.934;2023-09-18T11:43:27;5.43;;;4.93;;
15449;SDS011;7826;49.784;9.934;2023-09-18T11:46:04;5.07;;;4.57;;
15449;SDS011;7826;49.784;9.934;2023-09-18T11:48:34;4.63;;;4.23;;
15449;SDS011;7826;49.784;9.934;2023-09-18T11:51:02;4.90;;;4.43;;
15449;SDS011;7826;49.784;9.934;2023-09-18T11:56:53;7.60;;;4.60;;
15449;SDS011;7826;49.784;9.934;2023-09-18T12:02:51;11.20;;;4.43;;
15449;SDS011;7826;49.784;9.934;2023-09-18T12:05:27;5.00;;;4.50;;
15449;SDS011;7826;49.784;9.934;2023-09-18T12:08:00;6.63;;;4.43;;
15449;SDS011;7826;49.784;9.934;2023-09-18T12:11:26;7.23;;;5.13;;
15449;SDS011;7826;49.784;9.934;2023-09-18T12:14:07;5.93;;;5.10;;
15449;SDS011;7826;49.784;9.934;2023-09-18T12:16:40;5.10;;;4.53;;
15449;SDS011;7826;49.784;9.934;2023-09-18T12:19:23;6.27;;;4.43;;
15449;SDS011;7826;49.784;9.934;2023-09-18T12:21:50;4.57;;;4.17;;
15449;SDS011;7826;49.784;9.934;2023-09-18T12:24:23;6.13;;;4.63;;
15449;SDS011;7826;49.784;9.934;2023-09-18T12:26:54;7.37;;;4.63;;
15449;SDS011;7826;49.784;9.934;2023-09-18T12:29:20;5.23;;;4.73;;
15449;SDS011;7826;49.784;9.934;2023-09-18T12:31:47;5.10;;;4.50;;
15449;SDS011;7826;49.784;9.934;2023-09-18T12:34:16;4.93;;;4.43;;
15449;SDS011;7826;49.784;9.934;2023-09-18T12:36:44;7.97;;;4.53;;
15449;SDS011;7826;49.784;9.934;2023-09-18T12:39:13;4.73;;;4.27;;
15449;SDS011;7826;49.784;9.934;2023-09-18T12:41:45;5.70;;;4.80;;
15449;SDS011;7826;49.784;9.934;2023-09-18T12:44:12;5.83;;;4.20;;
15449;SDS011;7826;49.784;9.934;2023-09-18T12:46:43;5.50;;;4.30;;
15449;SDS011;7826;49.784;9.934;2023-09-18T12:49:17;4.47;;;4.03;;
15449;SDS011;7826;49.784;9.934;2023-09-18T12:51:57;5.10;;;4.60;;
15449;SDS011;7826;49.784;9.934;2023-09-18T12:54:38;6.80;;;4.53;;
15449;SDS011;7826;49.784;9.934;2023-09-18T12:57:06;5.17;;;4.43;;
15449;SDS011;7826;49.784;9.934;2023-09-18T12:59:35;7.97;;;4.67;;
15449;SDS011;7826;49.784;9.934;2023-09-18T13:02:02;5.77;;;4.30;;
15449;SDS011;7826;49.784;9.934;2023-09-18T13:04:33;6.40;;;4.30;;
15449;SDS011;7826;49.784;9.934;2023-09-18T13:07:04;5.37;;;4.10;;
15449;SDS011;7826;49.784;9.934;2023-09-18T13:09:30;5.03;;;4.43;;
15449;SDS011;7826;49.784;9.934;2023-09-18T13:11:57;5.87;;;4.40;;
15449;SDS011;7826;49.784;9.934;2023-09-18T13:14:24;6.73;;;4.50;;
15449;SDS011;7826;49.784;9.934;2023-09-18T13:16:51;5.47;;;4.67;;
15449;SDS011;7826;49.784;9.934;2023-09-18T13:19:17;6.27;;;4.47;;
15449;SDS011;7826;49.784;9.934;2023-09-18T13:21:48;8.60;;;5.40;;
15449;SDS011;7826;49.784;9.934;2023-09-18T13:24:29;4.70;;;4.30;;
15449;SDS011;7826;49.784;9.934;2023-09-18T13:26:56;4.77;;;4.37;;
15449;SDS011;7826;49.784;9.934;2023-09-18T13:29:24;5.20;;;4.70;;
15449;SDS011;7826;49.784;9.934;2023-09-18T13:31:51;5.10;;;4.60;;
15449;SDS011;7826;49.784;9.934;2023-09-18T13:34:18;5.20;;;4.57;;
15449;SDS011;7826;49.784;9.934;2023-09-18T13:36:45;7.70;;;4.37;;
15449;SDS011;7826;49.784;9.934;2023-09-18T13:39:12;5.47;;;4.83;;
15449;SDS011;7826;49.784;9.934;2023-09-18T13:41:39;6.33;;;4.77;;
15449;SDS011;7826;49.784;9.934;2023-09-18T13:44:07;6.30;;;4.40;;
15449;SDS011;7826;49.784;9.934;2023-09-18T13:46:33;6.50;;;4.50;;
15449;SDS011;7826;49.784;9.934;2023-09-18T13:49:03;4.90;;;4.40;;
15449;SDS011;7826;49.784;9.934;2023-09-18T13:51:33;7.03;;;4.80;;
15449;SDS011;7826;49.784;9.934;2023-09-18T13:53:59;5.33;;;4.10;;
15449;SDS011;7826;49.784;9.934;2023-09-18T13:56:26;7.83;;;4.20;;
15449;SDS011;7826;49.784;9.934;2023-09-18T13:58:55;4.30;;;3.87;;
15449;SDS011;7826;49.784;9.934;2023-09-18T14:01:23;5.40;;;4.30;;
15449;SDS011;7826;49.784;9.934;2023-09-18T14:03:51;5.40;;;3.93;;
15449;SDS011;7826;49.784;9.934;2023-09-18T14:06:18;4.33;;;3.80;;
15449;SDS011;7826;49.784;9.934;2023-09-18T14:08:44;6.83;;;3.67;;
15449;SDS011;7826;49.784;9.934;2023-09-18T14:11:11;5.20;;;3.90;;
15449;SDS011;7826;49.784;9.934;2023-09-18T14:13:38;7.03;;;3.83;;
15449;SDS011;7826;49.784;9.934;2023-09-18T14:16:04;10.17;;;4.50;;
15449;SDS011;7826;49.784;9.934;2023-09-18T14:18:31;7.60;;;3.60;;
15449;SDS011;7826;49.784;9.934;2023-09-18T14:20:58;4.90;;;3.53;;
15449;SDS011;7826;49.784;9.934;2023-09-18T14:23:25;5.70;;;3.80;;
15449;SDS011;7826;49.784;9.934;2023-09-18T14:25:52;6.53;;;3.67;;
15449;SDS011;7826;49.784;9.934;2023-09-18T14:28:20;5.83;;;3.77;;
15449;SDS011;7826;49.784;9.934;2023-09-18T14:30:47;8.37;;;3.50;;
15449;SDS011;7826;49.784;9.934;2023-09-18T14:33:13;5.23;;;3.40;;
15449;SDS011;7826;49.784;9.934;2023-09-18T14:35:40;5.43;;;3.07;;
15449;SDS011;7826;49.784;9.934;2023-09-18T14:38:07;5.77;;;3.37;;
15449;SDS011;7826;49.784;9.934;2023-09-18T14:40:34;6.17;;;4.03;;
15449;SDS011;7826;49.784;9.934;2023-09-18T14:43:00;8.27;;;5.40;;
15449;SDS011;7826;49.784;9.934;2023-09-18T14:45:27;9.43;;;5.13;;
15449;SDS011;7826;49.784;9.934;2023-09-18T14:47:54;9.13;;;5.00;;
15449;SDS011;7826;49.784;9.934;2023-09-18T14:50:20;8.97;;;5.23;;
15449;SDS011;7826;49.784;9.934;2023-09-18T14:52:46;10.63;;;6.90;;
15449;SDS011;7826;49.784;9.934;2023-09-18T14:55:13;9.60;;;6.93;;
15449;SDS011;7826;49.784;9.934;2023-09-18T14:57:40;11.97;;;6.20;;
15449;SDS011;7826;49.784;9.934;2023-09-18T15:00:06;8.13;;;5.50;;
15449;SDS011;7826;49.784;9.934;2023-09-18T15:02:33;8.80;;;4.83;;
15449;SDS011;7826;49.784;9.934;2023-09-18T15:05:01;10.63;;;4.57;;
15449;SDS011;7826;49.784;9.934;2023-09-18T15:07:27;7.40;;;4.60;;
15449;SDS011;7826;49.784;9.934;2023-09-18T15:09:54;9.63;;;4.10;;
15449;SDS011;7826;49.784;9.934;2023-09-18T15:12:21;8.77;;;4.43;;
15449;SDS011;7826;49.784;9.934;2023-09-18T15:14:48;5.47;;;4.30;;
15449;SDS011;7826;49.784;9.934;2023-09-18T15:17:15;6.57;;;3.70;;
15449;SDS011;7826;49.784;9.934;2023-09-18T15:19:42;4.50;;;3.80;;
15449;SDS011;7826;49.784;9.934;2023-09-18T15:22:08;6.93;;;4.13;;
15449;SDS011;7826;49.784;9.934;2023-09-18T15:24:36;6.33;;;4.20;;
15449;SDS011;7826;49.784;9.934;2023-09-18T15:27:03;4.97;;;4.07;;
15449;SDS011;7826;49.784;9.934;2023-09-18T15:29:29;5.23;;;3.57;;
15449;SDS011;7826;49.784;9.934;2023-09-18T15:31:57;6.87;;;4.30;;
15449;SDS011;7826;49.784;9.934;2023-09-18T15:34:23;5.10;;;3.70;;
15449;SDS011;7826;49.784;9.934;2023-09-18T15:36:50;5.40;;;4.03;;
15449;SDS011;7826;49.784;9.934;2023-09-18T15:39:18;6.73;;;4.23;;
15449;SDS011;7826;49.784;9.934;2023-09-18T15:41:45;8.17;;;4.33;;